< < Back
Terminal Aerodrome Forecast


Current Version              Previous Versions:   1  2  3  4  5  6  7  8  9  

Terminal Aerodrome Forecast

475
FTUS44 KBMX 241700
TAFBHM
TAF
KBHM 241736Z 2418/2518 17008KT P6SM SCT070 SCT250
     FM242000 18008KT P6SM SCT040 BKN250
     FM250700 20010KT P6SM SHRA BKN020 OVC050
     FM251200 28013KT P6SM OVC020=



Latest METAR

562
SAUS70 KWBC 242000 RRH
MTRBHM
METAR KBHM 241953Z 19014KT 10SM BKN070 28/10 A2993 RMK AO2 SLP130
T02780100


USA.gov is the U.S. government's official web portal to all federal, state and local government web resources and services.